EDDSLOWS

Guest
Details From EDDS - Stuttgart
To LOWS - Salzburg Maxglan
Flight Number -
Tags Generated
Created
Modified
Stats Distance 161 nm / 298 km
Max Altitude 0 ft / 0 m
Waypoints 2
Social Downloads 1
Likes 0
Share VATSIM

Download

Looking for another format? Having issues loading an existing format? Contact us
Advertisement - Login to hide

Notes

Generated

Route

EDDS LOWS

ID Type Via Altitude Latitude Longitude Leg Dist Tot Dist Heading (true) Name
O EDDS APT - 0 ft / 0 m 48.68573˚ 9.20013˚ - 0 nm - -
O LOWS APT - 0 ft / 0 m 47.80472˚ 12.99717˚ 160 nm 160 nm 108° / 111° -

Altitude Profile

Advertisement - Login to hide

EDDS

Details ICAO EDDS (STR)
Name Stuttgart
Region Germany - Civil
Timezone Europe/Berlin (UTC+1.0)
Stats Elevation 1,273 ft / 388 m (AMSL)
Location 48.689876° 9.221962°
Runways 1
Magnetic Variation 2.523° E

METAR

EDDS 150050Z 19009KT 9999 -RA BKN020 04/02 Q0992

Decode

TAF

TAF TAF EDDS 142300Z 1500/1524 20007KT 9999 BKN025 TEMPO 1500/1503 23015G25KT SHRA BKN020CB BECMG 1518/1521 VRB03KT

Decode

Departure Runways

ID Width Length Bearing (true) Bearing (mag) Surface Threshold Offset Overrun Length
07 148 ft / 45 m 10,950 ft / 3,337 m 73.96° 71.44° Concrete 981 ft / 299 m 157 ft / 48 m
25 148 ft / 45 m 10,950 ft / 3,337 m 253.99° 251.47° Concrete 0 ft / 0 m 157 ft / 48 m

LOWS

Details ICAO LOWS (SZG)
Name Salzburg Maxglan
Region Austria
Timezone Europe/Vienna (UTC+1.0)
Stats Elevation 1,411 ft / 430 m (AMSL)
Location 47.793333° 13.004333°
Runways 1
Magnetic Variation 3.427° E

METAR

LOWS 150050Z AUTO 14003KT 9999 FEW048 BKN050 02/01 Q0996

Decode

TAF

TAF LOWS 142315Z 1500/1524 15006KT 9999 SCT060 BKN090 TX05/1512Z TN00/1521Z TEMPO 1500/1506 -SHRA SCT025 BKN030 PROB40 TEMPO 1503/1506 4000 -SHSNRA BECMG 1508/1510 03005KT FEW060 SCT100 BECMG 1516/1518 15005KT CAVOK

Decode

Destination Runways

ID Width Length Bearing (true) Bearing (mag) Surface Threshold Offset Overrun Length
16 148 ft / 45 m 9,024 ft / 2,751 m 157.08° 153.65° Concrete 656 ft / 200 m 0 ft / 0 m
34 148 ft / 45 m 9,024 ft / 2,751 m 337.09° 333.66° Concrete 787 ft / 240 m 0 ft / 0 m

Approach Navaids

Runway Type Ident Frequency Range Bearing (true) Bearing (mag) Slope Elevation
16 Localiser OES 109.90 MHz 18 nm / 33 km 157.53° 154.11° - 1,411 ft / 430 m (AMSL)
16 Glidescope OES 109.90 MHz 10 nm / 19 km 157.09° 153.66° 3.00° 1,446 ft / 441 m (AMSL)
16 DME OES 109.90 MHz 18 nm / 33 km - - - 1,446 ft / 441 m (AMSL)

Popular Alternatives